createdAt,value
2022-10-01T00:00:08.967Z,91.42
2022-10-01T00:02:39.198Z,91.60
2022-10-01T00:05:10.957Z,91.73
2022-10-01T00:07:40.007Z,91.84
2022-10-01T00:10:09.955Z,91.72
2022-10-01T00:12:46.757Z,91.83
2022-10-01T00:15:16.972Z,91.71
2022-10-01T00:17:45.339Z,92.06
2022-10-01T00:20:14.855Z,91.86
2022-10-01T00:22:43.308Z,91.97
2022-10-01T00:25:12.108Z,92.27
2022-10-01T00:27:41.857Z,92.10
2022-10-01T00:30:12.242Z,92.15
2022-10-01T00:32:41.317Z,92.21
2022-10-01T00:35:10.433Z,92.63
2022-10-01T00:37:38.907Z,92.62
2022-10-01T00:40:08.483Z,92.58
2022-10-01T00:42:36.870Z,92.47
2022-10-01T00:45:07.326Z,92.53
2022-10-01T00:47:40.150Z,92.26
2022-10-01T00:50:11.950Z,92.36
2022-10-01T00:52:42.121Z,92.51
2022-10-01T00:55:13.472Z,92.41
2022-10-01T00:57:42.803Z,92.43
2022-10-01T01:00:14.340Z,92.66
2022-10-01T01:02:42.916Z,92.49
2022-10-01T01:05:13.904Z,92.55
2022-10-01T01:07:46.131Z,92.81
2022-10-01T01:10:15.216Z,92.91
2022-10-01T01:12:52.099Z,92.68
2022-10-01T01:15:26.177Z,93.09
2022-10-01T01:17:57.996Z,93.36
2022-10-01T01:20:41.959Z,93.32
2022-10-01T01:23:39.048Z,93.61
2022-10-01T01:26:13.895Z,93.32
2022-10-01T01:28:45.408Z,93.38
2022-10-01T01:31:16.814Z,93.45
2022-10-01T01:33:47.533Z,93.57
2022-10-01T01:36:18.669Z,93.66
2022-10-01T01:38:51.767Z,93.47
2022-10-01T01:41:21.485Z,93.37
2022-10-01T01:43:53.776Z,93.32
2022-10-01T01:46:22.662Z,93.65
2022-10-01T01:48:53.414Z,93.30
2022-10-01T01:51:26.184Z,93.34
2022-10-01T01:53:55.453Z,93.34
2022-10-01T01:56:24.041Z,93.06
2022-10-01T01:58:54.874Z,92.93
2022-10-01T02:01:34.838Z,92.35
2022-10-01T02:04:04.994Z,92.86
2022-10-01T02:06:37.077Z,92.95
2022-10-01T02:09:14.312Z,92.63
2022-10-01T02:11:49.741Z,92.93
2022-10-01T02:14:24.221Z,93.28
2022-10-01T02:16:57.978Z,93.39
2022-10-01T02:19:28.970Z,93.42
2022-10-01T02:22:00.994Z,93.62
2022-10-01T02:24:37.863Z,93.68
2022-10-01T02:27:11.514Z,93.82
2022-10-01T02:29:42.359Z,93.88
2022-10-01T02:32:11.286Z,93.85
2022-10-01T02:34:40.852Z,93.89
2022-10-01T02:37:09.989Z,93.81
2022-10-01T02:39:41.027Z,94.37
2022-10-01T02:42:10.207Z,94.32
2022-10-01T02:44:42.671Z,94.14
2022-10-01T02:47:15.705Z,94.51
2022-10-01T02:49:44.234Z,94.54
2022-10-01T02:52:17.791Z,94.61
2022-10-01T02:54:50.431Z,94.56
2022-10-01T02:57:27.563Z,94.58
2022-10-01T03:00:00.181Z,94.68
2022-10-01T03:02:29.501Z,94.65
2022-10-01T03:04:58.140Z,94.69
2022-10-01T03:07:27.244Z,94.73
2022-10-01T03:09:55.627Z,94.83
2022-10-01T03:12:24.569Z,94.84
2022-10-01T03:14:54.202Z,94.93
2022-10-01T03:17:23.996Z,94.74
2022-10-01T03:19:52.424Z,94.44
2022-10-01T03:22:22.791Z,94.74
2022-10-01T03:24:51.588Z,94.61
2022-10-01T03:27:20.012Z,94.59
2022-10-01T03:29:48.819Z,94.55
2022-10-01T03:32:17.604Z,94.50
2022-10-01T03:34:47.499Z,94.37
2022-10-01T03:37:16.051Z,94.23
2022-10-01T03:39:44.629Z,94.27
2022-10-01T03:42:13.058Z,94.24
2022-10-01T03:44:41.435Z,94.44
2022-10-01T03:47:09.927Z,94.34
2022-10-01T03:49:38.538Z,94.03
2022-10-01T03:52:08.314Z,93.73
2022-10-01T03:54:36.813Z,93.76
2022-10-01T03:57:06.140Z,93.72
2022-10-01T03:59:35.020Z,93.71
2022-10-01T04:02:03.735Z,93.24
2022-10-01T04:04:32.159Z,93.18
2022-10-01T04:07:00.522Z,93.32
2022-10-01T04:09:30.311Z,93.19
2022-10-01T04:11:59.335Z,93.20
2022-10-01T04:14:27.764Z,93.34
2022-10-01T04:16:56.164Z,93.44
2022-10-01T04:19:24.519Z,93.26
2022-10-01T04:21:52.854Z,93.12
2022-10-01T04:24:21.372Z,93.23
2022-10-01T04:26:52.098Z,93.29
2022-10-01T04:29:20.508Z,93.44
2022-10-01T04:31:48.954Z,93.45
2022-10-01T04:34:17.371Z,93.58
2022-10-01T04:36:45.727Z,93.32
2022-10-01T04:39:14.219Z,93.55
2022-10-01T04:41:42.664Z,93.56
2022-10-01T04:44:12.569Z,93.32
2022-10-01T04:46:41.059Z,93.41
2022-10-01T04:49:09.530Z,93.29
2022-10-01T04:51:37.937Z,93.39
2022-10-01T04:54:06.323Z,93.12
2022-10-01T04:56:34.704Z,93.42
2022-10-01T04:59:03.305Z,93.24
2022-10-01T05:01:33.325Z,93.13
2022-10-01T05:04:02.224Z,93.17
2022-10-01T05:06:30.617Z,93.27
2022-10-01T05:08:58.943Z,92.75
2022-10-01T05:11:27.344Z,92.93
2022-10-01T05:13:55.698Z,93.15
2022-10-01T05:16:24.112Z,92.66
2022-10-01T05:18:54.906Z,92.57
2022-10-01T05:21:23.280Z,92.38
2022-10-01T05:23:51.919Z,92.19
2022-10-01T05:26:20.309Z,92.15
2022-10-01T05:28:48.661Z,91.83
2022-10-01T05:31:18.897Z,91.63
2022-10-01T05:33:47.347Z,91.83
2022-10-01T05:36:17.435Z,91.54
2022-10-01T05:38:46.229Z,91.44
2022-10-01T05:41:14.713Z,91.75
2022-10-01T05:43:43.998Z,91.48
2022-10-01T05:46:12.916Z,91.24
2022-10-01T05:48:41.320Z,91.10
2022-10-01T05:51:09.715Z,90.74
2022-10-01T05:53:39.504Z,91.07
2022-10-01T05:56:08.336Z,90.82
2022-10-01T05:58:36.769Z,91.29
2022-10-01T06:01:05.326Z,91.12
2022-10-01T06:03:33.842Z,91.51
2022-10-01T06:06:02.234Z,91.25
2022-10-01T06:08:30.593Z,91.01
2022-10-01T06:11:03.464Z,90.90
2022-10-01T06:13:32.212Z,90.91
2022-10-01T06:16:00.668Z,90.82
2022-10-01T06:18:29.098Z,91.12
2022-10-01T06:20:59.958Z,91.06
2022-10-01T06:23:28.297Z,90.79
2022-10-01T06:25:56.954Z,90.46
2022-10-01T06:28:26.781Z,90.83
2022-10-01T06:30:55.237Z,90.65
2022-10-01T06:33:24.138Z,90.61
2022-10-01T06:35:54.123Z,90.26
2022-10-01T06:38:24.337Z,90.36
2022-10-01T06:40:54.001Z,90.38
2022-10-01T06:43:22.792Z,90.51
2022-10-01T06:45:52.868Z,90.73
2022-10-01T06:48:21.949Z,90.49
2022-10-01T06:50:52.339Z,90.36
2022-10-01T06:53:19.836Z,90.28
2022-10-01T06:55:50.034Z,90.16
2022-10-01T06:58:20.367Z,89.65
2022-10-01T07:00:49.822Z,89.26
2022-10-01T07:03:21.907Z,89.04
2022-10-01T07:05:50.892Z,88.88
2022-10-01T07:08:19.534Z,88.85
2022-10-01T07:10:47.895Z,88.13
2022-10-01T07:13:20.444Z,88.35
2022-10-01T07:15:49.215Z,88.33
2022-10-01T07:18:18.127Z,87.79
2022-10-01T07:20:49.376Z,87.86
2022-10-01T07:23:18.169Z,87.98
2022-10-01T07:25:46.846Z,87.59
2022-10-01T07:28:18.461Z,87.27
2022-10-01T07:30:48.820Z,87.34
2022-10-01T07:33:22.798Z,86.92
2022-10-01T07:35:53.220Z,86.54
2022-10-01T07:38:21.882Z,86.63
2022-10-01T07:40:53.164Z,86.70
2022-10-01T07:43:22.648Z,86.57
2022-10-01T07:45:52.625Z,86.61
2022-10-01T07:48:21.071Z,87.06
2022-10-01T07:50:49.801Z,86.68
2022-10-01T07:53:19.862Z,86.25
2022-10-01T07:55:48.243Z,86.29
2022-10-01T07:58:16.648Z,86.10
2022-10-01T08:00:45.149Z,85.93
2022-10-01T08:03:13.575Z,86.15
2022-10-01T08:05:43.315Z,86.40
2022-10-01T08:08:11.681Z,86.28
2022-10-01T08:10:41.486Z,85.81
2022-10-01T08:13:15.437Z,85.26
2022-10-01T08:15:44.506Z,85.46
2022-10-01T08:18:13.637Z,85.57
2022-10-01T08:20:42.311Z,85.51
2022-10-01T08:23:12.610Z,85.89
2022-10-01T08:25:43.875Z,86.20
2022-10-01T08:28:13.367Z,86.07
2022-10-01T08:30:43.966Z,85.96
2022-10-01T08:33:13.620Z,85.75
2022-10-01T08:35:43.707Z,85.79
2022-10-01T08:38:12.921Z,85.50
2022-10-01T08:40:47.474Z,85.07
2022-10-01T08:43:29.183Z,84.67
2022-10-01T08:45:59.991Z,84.07
2022-10-01T08:48:40.043Z,83.60
2022-10-01T08:51:11.348Z,83.02
2022-10-01T08:53:42.464Z,82.72
2022-10-01T08:56:22.899Z,82.10
2022-10-01T08:58:55.171Z,81.89
2022-10-01T09:01:23.876Z,81.80
2022-10-01T09:03:52.354Z,81.25
2022-10-01T09:06:22.931Z,80.93
2022-10-01T09:08:59.642Z,80.72
2022-10-01T09:11:45.745Z,81.13
2022-10-01T09:14:25.467Z,81.31
2022-10-01T09:17:01.344Z,82.35
2022-10-01T09:19:47.736Z,82.74
2022-10-01T09:22:33.262Z,83.07
2022-10-01T09:25:08.297Z,83.06
2022-10-01T09:27:39.575Z,83.24
2022-10-01T09:30:13.367Z,83.22
2022-10-01T09:32:45.027Z,83.13
2022-10-01T09:35:22.409Z,83.22
2022-10-01T09:37:55.135Z,83.22
2022-10-01T09:40:28.832Z,83.35
2022-10-01T09:42:59.162Z,83.14
2022-10-01T09:45:28.435Z,83.91
2022-10-01T09:48:01.682Z,84.98
2022-10-01T09:50:36.722Z,85.11
2022-10-01T09:53:05.670Z,85.54
2022-10-01T09:55:37.943Z,86.32
2022-10-01T09:58:13.677Z,86.46
2022-10-01T10:00:43.101Z,86.85
2022-10-01T10:03:11.702Z,86.74
2022-10-01T10:08:46.119Z,87.36
2022-10-01T10:11:22.387Z,87.89
2022-10-01T10:13:53.594Z,88.00
2022-10-01T10:16:26.623Z,88.33
2022-10-01T10:18:58.108Z,88.55
2022-10-01T10:21:29.860Z,88.85
2022-10-01T10:23:59.545Z,88.48
2022-10-01T10:26:32.701Z,88.69
2022-10-01T10:29:03.883Z,88.60
2022-10-01T10:31:40.868Z,88.79
2022-10-01T10:34:14.446Z,89.08
2022-10-01T10:36:43.047Z,89.14
2022-10-01T10:39:20.996Z,89.20
2022-10-01T10:41:50.638Z,88.97
2022-10-01T10:44:22.527Z,89.37
2022-10-01T10:46:52.013Z,89.16
2022-10-01T10:49:22.881Z,89.55
2022-10-01T10:51:54.152Z,89.12
2022-10-01T10:54:25.782Z,89.26
2022-10-01T10:57:02.539Z,89.02
2022-10-01T10:59:34.500Z,89.10
2022-10-01T11:02:04.895Z,89.50
2022-10-01T11:04:40.572Z,89.39
2022-10-01T11:07:09.083Z,89.27
2022-10-01T11:09:48.230Z,89.25
2022-10-01T11:12:26.693Z,89.43
2022-10-01T11:15:07.449Z,89.50
2022-10-01T11:17:51.327Z,89.75
2022-10-01T11:20:34.118Z,89.42
2022-10-01T11:23:16.814Z,89.62
2022-10-01T11:25:54.055Z,89.62
2022-10-01T11:28:33.440Z,89.58
2022-10-01T11:31:10.928Z,89.85
2022-10-01T11:33:47.126Z,90.28
2022-10-01T11:36:21.244Z,90.13
2022-10-01T11:38:53.758Z,90.07
2022-10-01T11:41:40.333Z,90.00
2022-10-01T11:44:13.900Z,89.87
2022-10-01T11:46:50.366Z,90.03
2022-10-01T11:49:28.096Z,89.94
2022-10-01T11:52:05.038Z,89.76
2022-10-01T11:54:35.962Z,89.43
2022-10-01T11:57:23.034Z,88.96
2022-10-01T11:59:54.770Z,88.88
2022-10-01T12:02:28.729Z,88.78
2022-10-01T12:04:59.854Z,88.93
2022-10-01T12:07:31.776Z,88.84
2022-10-01T12:10:07.676Z,88.96
2022-10-01T12:12:40.661Z,89.08
2022-10-01T12:15:13.963Z,89.05
2022-10-01T12:17:46.684Z,88.95
2022-10-01T12:20:23.781Z,88.91
2022-10-01T12:22:53.465Z,88.49
2022-10-01T12:25:25.206Z,88.44
2022-10-01T12:27:59.060Z,87.97
2022-10-01T12:30:30.188Z,87.82
2022-10-01T12:33:15.594Z,85.57
2022-10-01T12:35:58.044Z,85.78
2022-10-01T12:38:43.677Z,86.03
2022-10-01T12:41:23.081Z,85.85
2022-10-01T12:44:21.957Z,85.35
2022-10-01T12:46:58.208Z,85.98
2022-10-01T12:49:33.125Z,85.73
2022-10-01T12:52:07.372Z,85.71
2022-10-01T12:55:07.277Z,85.60
2022-10-01T12:57:43.143Z,85.44
2022-10-01T13:00:16.852Z,85.72
2022-10-01T13:03:23.715Z,86.01
2022-10-01T13:06:00.637Z,86.22
2022-10-01T13:08:38.308Z,86.41
2022-10-01T13:11:11.479Z,86.70
2022-10-01T13:13:40.335Z,86.86
2022-10-01T13:16:14.392Z,86.58
2022-10-01T13:18:54.564Z,86.99
2022-10-01T13:21:32.438Z,86.70
2022-10-01T13:24:03.196Z,86.26
2022-10-01T13:26:34.215Z,85.79
2022-10-01T13:29:10.084Z,86.16
2022-10-01T13:31:41.546Z,86.54
2022-10-01T13:34:36.238Z,86.66
2022-10-01T13:37:17.409Z,86.03
2022-10-01T13:39:46.170Z,85.93
2022-10-01T13:42:27.518Z,86.28
2022-10-01T13:44:58.492Z,86.43
2022-10-01T13:47:27.993Z,86.37
2022-10-01T13:49:59.185Z,87.34
2022-10-01T13:52:29.229Z,87.60
2022-10-01T13:54:58.229Z,87.63
2022-10-01T13:57:34.086Z,87.78
2022-10-01T14:00:20.685Z,87.87
2022-10-01T14:03:01.867Z,88.14
2022-10-01T14:05:35.137Z,88.08
2022-10-01T14:08:17.411Z,87.97
2022-10-01T14:11:07.676Z,87.73
2022-10-01T14:13:56.790Z,88.04
2022-10-01T14:16:25.390Z,87.81
2022-10-01T14:18:54.097Z,87.90
2022-10-01T14:21:47.448Z,88.04
2022-10-01T14:24:25.620Z,88.32
2022-10-01T14:26:55.929Z,87.85
2022-10-01T14:29:36.083Z,88.31
2022-10-01T14:32:13.804Z,88.25
2022-10-01T14:34:52.119Z,88.41
2022-10-01T14:37:20.984Z,88.44
2022-10-01T14:40:02.054Z,88.36
2022-10-01T14:42:32.057Z,88.25
2022-10-01T14:45:00.561Z,88.16
2022-10-01T14:47:35.643Z,88.45
2022-10-01T14:50:11.420Z,88.37
2022-10-01T14:52:42.553Z,88.48
2022-10-01T14:55:16.224Z,88.38
2022-10-01T14:57:46.970Z,88.26
2022-10-01T15:00:16.790Z,88.56
2022-10-01T15:02:47.093Z,88.64
2022-10-01T15:05:22.303Z,88.52
2022-10-01T15:07:51.020Z,88.70
2022-10-01T15:10:24.166Z,88.94
2022-10-01T15:12:53.506Z,89.12
2022-10-01T15:15:23.503Z,88.97
2022-10-01T15:17:52.168Z,89.62
2022-10-01T15:20:20.722Z,89.60
2022-10-01T15:22:50.151Z,89.72
2022-10-01T15:25:22.966Z,89.71
2022-10-01T15:27:54.226Z,89.97
2022-10-01T15:30:22.738Z,90.22
2022-10-01T15:32:51.977Z,90.14
2022-10-01T15:35:24.648Z,90.46
2022-10-01T15:37:53.825Z,90.46
2022-10-01T15:40:27.544Z,90.75
2022-10-01T15:43:24.314Z,90.65
2022-10-01T15:46:11.073Z,90.78
2022-10-01T15:48:39.588Z,90.83
2022-10-01T15:51:22.704Z,91.09
2022-10-01T15:53:52.718Z,91.24
2022-10-01T15:56:24.231Z,91.06
2022-10-01T15:58:54.744Z,91.41
2022-10-01T16:01:25.586Z,91.36
2022-10-01T16:03:56.710Z,91.41
2022-10-01T16:06:28.536Z,91.49
2022-10-01T16:09:06.256Z,91.33
2022-10-01T16:11:51.824Z,91.53
2022-10-01T16:14:30.042Z,91.64
2022-10-01T16:17:37.730Z,91.92
2022-10-01T16:20:50.486Z,91.55
2022-10-01T16:23:38.660Z,91.42
2022-10-01T16:26:24.395Z,91.42
2022-10-01T16:28:57.161Z,91.66
2022-10-01T16:31:29.080Z,91.16
2022-10-01T16:33:57.582Z,91.49
2022-10-01T16:36:26.663Z,91.14
2022-10-01T16:38:55.192Z,91.60
2022-10-01T16:41:24.987Z,91.43
2022-10-01T16:43:56.374Z,91.26
2022-10-01T16:46:24.772Z,91.29
2022-10-01T16:48:53.238Z,91.47
2022-10-01T16:51:22.757Z,91.48
2022-10-01T16:53:57.104Z,91.08
2022-10-01T16:56:27.303Z,91.07
2022-10-01T16:58:57.345Z,90.95
2022-10-01T17:01:32.896Z,90.96
2022-10-01T17:04:01.574Z,90.70
2022-10-01T17:06:29.962Z,90.45
2022-10-01T17:08:58.360Z,90.80
2022-10-01T17:11:27.344Z,90.70
2022-10-01T17:13:57.333Z,90.51
2022-10-01T17:16:25.836Z,90.40
2022-10-01T17:18:54.253Z,90.17
2022-10-01T17:21:22.669Z,90.35
2022-10-01T17:23:53.495Z,89.75
2022-10-01T17:26:22.033Z,89.83
2022-10-01T17:28:50.744Z,89.70
2022-10-01T17:31:20.543Z,90.22
2022-10-01T17:33:51.249Z,90.26
2022-10-01T17:36:19.912Z,90.16
2022-10-01T17:38:48.440Z,90.02
2022-10-01T17:41:17.235Z,90.03
2022-10-01T17:43:45.849Z,89.77
2022-10-01T17:46:14.286Z,89.93
2022-10-01T17:48:44.115Z,89.85
2022-10-01T17:51:14.527Z,89.65
2022-10-01T17:53:44.423Z,89.31
2022-10-01T17:56:15.802Z,89.48
2022-10-01T17:58:45.929Z,89.87
2022-10-01T18:01:19.876Z,89.54
2022-10-01T18:03:54.143Z,89.64
2022-10-01T18:06:23.753Z,89.49
2022-10-01T18:08:56.450Z,89.39
2022-10-01T18:11:25.856Z,89.38
2022-10-01T18:13:54.341Z,88.99
2022-10-01T18:16:23.196Z,88.94
2022-10-01T18:21:46.080Z,89.05
2022-10-01T18:24:14.637Z,89.10
2022-10-01T18:26:43.030Z,89.68
2022-10-01T18:29:13.407Z,89.33
2022-10-01T18:31:44.775Z,89.30
2022-10-01T18:34:19.840Z,89.48
2022-10-01T18:36:54.567Z,89.77
2022-10-01T18:39:29.809Z,89.82
2022-10-01T18:41:58.435Z,90.04
2022-10-01T18:44:27.272Z,90.16
2022-10-01T18:47:04.548Z,90.43
2022-10-01T18:49:55.959Z,90.76
2022-10-01T18:52:31.116Z,91.01
2022-10-01T18:55:25.412Z,91.61
2022-10-01T18:58:07.973Z,91.83
2022-10-01T19:00:41.813Z,92.61
2022-10-01T19:03:31.601Z,93.34
2022-10-01T19:06:13.648Z,93.93
2022-10-01T19:08:52.572Z,93.86
2022-10-01T19:11:27.336Z,93.76
2022-10-01T19:14:12.412Z,93.57
2022-10-01T19:16:47.830Z,93.88
2022-10-01T19:19:28.833Z,94.63
2022-10-01T19:22:01.945Z,94.83
2022-10-01T19:24:42.241Z,94.91
2022-10-01T19:27:19.489Z,95.07
2022-10-01T19:29:57.682Z,94.83
2022-10-01T19:32:28.716Z,95.09
2022-10-01T19:35:02.168Z,95.06
2022-10-01T19:37:37.985Z,95.27
2022-10-01T19:40:13.936Z,95.46
2022-10-01T19:42:46.466Z,95.20
2022-10-01T19:45:20.014Z,95.21
2022-10-01T19:47:53.863Z,95.45
2022-10-01T19:50:25.073Z,95.07
2022-10-01T19:52:58.187Z,95.15
2022-10-01T19:55:27.886Z,95.32
2022-10-01T19:57:56.296Z,94.69
2022-10-01T20:00:26.058Z,94.77
2022-10-01T20:03:00.818Z,94.77
2022-10-01T20:05:31.071Z,94.52
2022-10-01T20:08:07.552Z,94.30
2022-10-01T20:10:39.829Z,94.25
2022-10-01T20:13:23.679Z,94.15
2022-10-01T20:15:59.983Z,94.14
2022-10-01T20:18:35.272Z,94.08
2022-10-01T20:21:12.725Z,94.15
2022-10-01T20:23:47.180Z,94.01
2022-10-01T20:26:21.215Z,93.81
2022-10-01T20:28:58.538Z,93.89
2022-10-01T20:31:31.202Z,94.09
2022-10-01T20:34:04.057Z,93.90
2022-10-01T20:36:36.726Z,93.71
2022-10-01T20:39:11.902Z,94.05
2022-10-01T20:41:45.156Z,93.98
2022-10-01T20:44:16.772Z,94.27
2022-10-01T20:46:48.201Z,94.31
2022-10-01T20:49:23.334Z,93.96
2022-10-01T20:51:56.268Z,94.31
2022-10-01T20:54:32.755Z,93.79
2022-10-01T20:57:06.800Z,94.03
2022-10-01T20:59:39.273Z,93.70
2022-10-01T21:02:28.709Z,93.58
2022-10-01T21:05:05.760Z,93.71
2022-10-01T21:07:38.161Z,93.76
2022-10-01T21:10:17.286Z,93.48
2022-10-01T21:12:52.602Z,93.58
2022-10-01T21:15:26.528Z,93.50
2022-10-01T21:18:00.953Z,93.54
2022-10-01T21:20:43.908Z,93.85
2022-10-01T21:23:24.753Z,93.86
2022-10-01T21:26:02.950Z,94.05
2022-10-01T21:28:45.009Z,94.01
2022-10-01T21:31:25.673Z,93.85
2022-10-01T21:33:55.605Z,94.10
2022-10-01T21:36:29.534Z,93.95
2022-10-01T21:39:01.904Z,93.75
2022-10-01T21:41:48.520Z,93.80
2022-10-01T21:44:44.807Z,93.91
2022-10-01T21:47:18.066Z,93.95
2022-10-01T21:49:53.048Z,93.50
2022-10-01T21:52:27.446Z,93.54
2022-10-01T21:55:17.235Z,93.48
2022-10-01T21:58:01.524Z,93.68
2022-10-01T22:00:30.823Z,93.19
2022-10-01T22:03:07.584Z,93.26
2022-10-01T22:05:40.701Z,93.21
2022-10-01T22:08:20.172Z,92.64
2022-10-01T22:10:51.271Z,92.08
2022-10-01T22:13:23.318Z,91.73
2022-10-01T22:15:54.515Z,90.79
2022-10-01T22:18:32.723Z,90.58
2022-10-01T22:21:02.217Z,90.72
2022-10-01T22:23:32.617Z,90.66
2022-10-01T22:26:05.079Z,90.24
2022-10-01T22:28:38.421Z,90.16
2022-10-01T22:31:11.494Z,90.02
2022-10-01T22:33:45.117Z,89.72
2022-10-01T22:36:17.278Z,89.22
2022-10-01T22:38:51.509Z,88.90
2022-10-01T22:41:23.984Z,88.82
2022-10-01T22:43:53.797Z,88.50
2022-10-01T22:46:47.184Z,86.58
2022-10-01T22:49:25.573Z,86.37
2022-10-01T22:52:04.113Z,87.10
2022-10-01T22:54:40.296Z,86.70
2022-10-01T22:57:17.261Z,86.49
2022-10-01T22:59:53.216Z,86.19
2022-10-01T23:02:26.694Z,86.10
2022-10-01T23:05:06.446Z,85.41
2022-10-01T23:07:43.809Z,85.39
2022-10-01T23:10:15.462Z,84.84
2022-10-01T23:13:01.321Z,85.05
2022-10-01T23:15:37.242Z,84.63
2022-10-01T23:18:11.141Z,84.50
2022-10-01T23:20:43.814Z,84.84
2022-10-01T23:23:25.603Z,84.72
2022-10-01T23:26:20.542Z,84.15
2022-10-01T23:28:59.404Z,84.05
2022-10-01T23:31:34.504Z,84.25
2022-10-01T23:34:15.670Z,84.38
2022-10-01T23:36:49.356Z,84.22
2022-10-01T23:39:34.815Z,84.30
2022-10-01T23:42:08.282Z,84.57
2022-10-01T23:44:40.438Z,84.53
2022-10-01T23:47:15.584Z,84.96
2022-10-01T23:49:46.388Z,85.42
2022-10-01T23:52:16.862Z,85.49
2022-10-01T23:54:49.414Z,85.89
2022-10-01T23:57:21.760Z,85.25
2022-10-01T23:59:54.126Z,85.28
